Date,TemperatureHighF,TemperatureAvgF,TemperatureLowF,DewpointHighF,DewpointAvgF,DewpointLowF,HumidityHigh,HumidityAvg,HumidityLow,PressureMaxIn,PressureMinIn,WindSpeedMaxMPH,WindSpeedAvgMPH,GustSpeedMaxMPH,PrecipitationSumIn
2013-1-1,37,23,13,17,8,1,85,57,29,30.39,30.23,8,1,10,0.00
2013-1-2,38,24,15,12,8,5,72,51,26,30.48,30.30,19,2,22,0.00
2013-1-3,39,25,9,10,4,-9,79,46,13,30.50,30.37,7,1,9,0.00
2013-1-4,51,30,14,16,8,1,75,44,14,30.38,30.15,8,1,10,0.00
2013-1-5,42,29,18,22,12,8,87,50,29,30.40,30.18,19,2,21,0.00
2013-1-6,51,32,16,16,8,-5,72,43,12,30.39,30.03,5,0,11,0.00
2013-1-7,56,38,26,19,9,-3,70,34,10,30.08,29.81,6,1,12,0.00
2013-1-8,54,44,26,19,14,3,69,32,17,30.18,29.79,31,4,31,0.00
2013-1-9,63,39,24,22,16,9,70,43,12,30.33,30.01,10,2,13,0.00
2013-1-10,46,34,24,20,16,11,66,50,27,30.00,29.51,11,1,19,0.00
2013-1-11,45,30,14,23,14,1,90,57,23,29.84,29.27,23,5,27,0.00
2013-1-12,17,9,4,9,3,0,89,76,59,30.35,29.86,10,2,18,0.00
2013-1-13,22,11,4,8,2,-3,82,66,44,30.44,30.34,13,1,15,0.00
2013-1-14,35,10,4,10,1,-3,86,67,33,30.49,30.37,6,0,10,0.00
2013-1-15,34,20,0,12,3,-7,84,51,30,30.45,30.36,5,1,9,0.00
2013-1-16,56,38,22,21,16,11,71,44,22,30.39,30.26,11,1,14,0.00
2013-1-17,53,37,25,19,15,11,69,44,21,30.49,30.26,9,1,11,0.00
2013-1-18,59,41,21,21,5,-4,76,29,8,30.26,30.07,10,2,19,0.00
2013-1-19,64,48,34,12,0,-14,39,15,5,30.16,30.04,19,3,24,0.00
2013-1-20,50,35,24,22,12,9,69,41,20,30.29,30.06,17,2,24,0.00
2013-1-21,58,40,17,17,6,-13,77,36,7,30.30,30.09,14,3,19,0.00
2013-1-22,62,52,36,5,-18,-42,24,6,1,30.09,29.92,17,4,34,0.00
2013-1-23,56,42,30,11,2,-6,27,19,11,30.14,30.03,6,1,10,0.00
2013-1-24,65,50,29,26,14,-9,52,26,7,30.13,29.88,28,7,36,0.00
2013-1-25,60,44,32,28,24,21,69,48,27,30.06,29.94,12,1,15,0.00
2013-1-26,56,42,32,37,27,22,81,58,30,30.01,29.70,7,1,10,0.00
2013-1-27,58,44,32,37,31,21,88,64,36,29.72,29.63,11,1,13,0.00
2013-1-28,58,36,28,31,24,16,94,64,28,29.76,29.48,22,2,26,0.00
2013-1-29,31,25,20,28,15,6,94,67,37,30.11,29.74,12,2,22,0.13
2013-1-30,41,30,13,22,12,4,88,50,32,30.11,29.97,34,4,39,0.01
2013-1-31,46,39,25,23,16,12,72,42,26,30.15,29.98,18,4,30,0.00
2013-2-1,49,37,24,23,18,12,77,49,26,30.23,30.05,18,4,34,0.00
2013-2-2,58,41,25,23,14,1,75,39,10,30.32,30.21,11,2,16,0.00
2013-2-3,57,40,25,21,11,-5,67,36,9,30.24,29.88,13,2,19,0.00
2013-2-4,54,41,26,15,8,-3,56,29,10,29.97,29.83,31,4,36,0.00
2013-2-5,60,45,32,20,15,13,49,32,16,30.02,29.78,11,1,11,0.00
2013-2-6,53,42,31,33,23,19,90,51,26,30.05,29.74,24,3,26,0.01
2013-2-7,49,37,27,32,21,12,89,57,25,30.17,30.04,8,1,14,0.01
2013-2-8,52,35,23,21,13,6,66,44,16,30.05,29.74,7,1,12,0.00
2013-2-9,37,30,26,29,20,12,88,68,49,29.74,29.57,13,3,19,0.01
2013-2-10,36,29,22,28,15,7,84,59,32,30.17,29.66,18,2,23,0.00
2013-2-11,30,24,17,19,14,12,85,68,48,30.20,30.12,9,1,16,0.00
2013-2-12,46,30,14,14,5,-11,80,42,10,30.23,30.12,11,1,14,0.00
2013-2-13,47,35,20,16,10,7,65,39,22,30.14,30.00,27,4,31,0.00
2013-2-14,38,28,23,23,14,-100,89,64,31,30.38,30.05,20,-29,30,0.00
2013-2-15,45,28,16,21,14,9,90,59,25,30.47,30.35,11,1,15,0.01
2013-2-16,56,45,25,16,11,7,68,26,15,30.35,29.92,19,5,24,0.00
2013-2-17,64,45,28,16,0,-42,52,23,1,29.92,29.47,15,3,26,0.00
2013-2-18,41,32,25,20,9,-2,78,44,17,30.16,29.72,24,3,28,0.00
2013-2-19,42,31,19,18,10,5,63,43,25,30.16,29.87,7,1,10,0.00
2013-2-20,39,26,19,28,18,13,93,72,39,29.88,29.71,10,2,16,0.00
2013-2-21,29,20,14,26,16,12,91,84,73,30.09,29.84,7,1,11,0.14
2013-2-22,38,27,16,20,14,4,89,62,32,30.14,29.99,11,1,19,0.03
2013-2-23,50,32,18,26,16,4,92,54,26,29.98,29.68,10,2,18,0.00
2013-2-24,28,26,23,27,24,21,95,94,91,30.26,29.78,13,4,28,0.00
2013-2-25,41,28,17,23,17,11,91,67,35,30.25,29.95,7,1,12,0.15
2013-2-26,34,27,19,27,19,13,86,70,53,30.27,29.92,19,3,28,0.03
2013-2-27,41,29,20,22,12,6,84,49,26,30.37,30.27,14,2,19,0.00
2013-2-28,44,32,13,22,10,3,82,44,20,30.39,30.28,19,3,22,0.00
2013-3-1,54,38,27,24,18,13,64,47,26,30.36,30.27,11,2,18,0.00
2013-3-2,62,47,31,27,23,20,71,43,20,30.32,29.97,8,1,15,0.00
2013-3-3,66,53,40,27,20,15,57,30,16,29.96,29.50,16,3,25,0.00
2013-3-4,51,32,20,26,22,13,91,70,32,30.30,29.51,14,2,25,0.03
2013-3-5,43,28,14,29,16,9,85,64,37,30.44,30.27,8,1,11,0.01
2013-3-6,63,40,22,28,21,6,84,54,12,30.27,29.86,13,1,18,0.00
2013-3-7,67,48,33,29,24,18,64,42,17,29.93,29.78,15,3,22,0.00
2013-3-8,50,39,31,32,29,26,84,69,45,29.88,29.67,8,1,10,0.00
2013-3-9,36,32,25,33,28,18,94,86,70,30.17,29.62,16,4,26,0.11
2013-3-10,44,33,19,25,19,12,84,58,32,30.27,30.10,5,0,12,0.16
2013-3-11,53,41,30,31,21,13,92,50,26,30.14,29.88,31,6,35,0.00
2013-3-12,43,31,25,30,26,21,94,81,56,30.37,30.13,5,0,9,0.21
2013-3-13,68,48,29,35,26,17,86,47,18,30.36,30.17,15,2,23,0.00
2013-3-14,73,57,41,28,21,5,53,28,7,30.18,29.98,13,2,17,0.00
2013-3-15,76,63,47,25,19,12,41,20,9,29.97,29.64,23,4,31,0.00
2013-3-16,58,48,39,33,30,25,73,53,28,29.79,29.66,13,2,20,0.00
2013-3-17,60,45,34,28,22,8,71,43,14,29.78,29.44,26,5,39,0.00
2013-3-18,52,41,32,18,10,5,40,29,16,29.93,29.79,19,4,28,0.00
2013-3-19,58,44,29,16,1,-26,56,21,3,30.32,29.91,20,6,32,0.00
2013-3-20,55,38,22,27,18,15,92,49,22,30.32,29.74,7,1,12,0.00
2013-3-21,60,45,36,34,21,8,64,41,18,29.76,29.43,19,3,26,0.00
2013-3-22,49,34,26,29,19,9,95,58,30,29.96,29.63,29,4,33,0.00
2013-3-23,27,20,16,25,18,12,94,89,67,30.40,29.96,16,4,25,0.00
2013-3-24,30,21,9,18,12,5,91,72,52,30.43,30.32,6,1,13,0.18
2013-3-25,36,25,14,22,12,5,93,62,30,30.47,30.35,10,1,12,0.01
2013-3-26,56,35,20,28,20,12,80,56,24,30.34,29.98,10,2,13,0.00
2013-3-27,58,44,31,36,29,23,82,59,36,30.09,29.99,9,1,16,0.00
2013-3-28,65,49,33,36,31,24,87,55,21,30.06,29.97,17,2,19,0.00
2013-3-29,68,53,38,36,28,23,80,43,18,30.03,29.91,18,2,34,0.00
2013-3-30,67,51,39,38,29,17,79,48,16,30.11,29.87,17,4,35,0.00
2013-3-31,71,52,33,36,24,6,87,44,8,30.10,29.83,11,2,20,0.00
2013-4-1,52,41,31,33,30,24,87,64,43,30.06,29.91,17,3,24,0.00
2013-4-2,40,37,35,35,33,31,94,86,75,30.16,30.04,7,2,11,0.13
2013-4-3,63,46,36,40,34,25,95,68,24,30.18,30.02,11,1,18,0.03
2013-4-4,69,55,40,34,28,21,70,41,18,30.07,29.85,11,2,21,0.00
2013-4-5,72,58,46,35,26,17,55,32,13,29.84,29.48,32,3,38,0.00
2013-4-6,69,55,46,33,23,19,49,30,17,29.76,29.65,10,3,21,0.00
2013-4-7,65,56,43,34,25,17,70,33,18,29.69,29.51,17,5,28,0.00
2013-4-8,63,45,26,34,29,24,93,58,29,29.73,29.24,35,5,46,0.01
2013-4-9,25,17,11,23,14,8,93,89,84,30.45,29.76,18,6,25,0.00
2013-4-10,30,18,9,19,12,6,88,76,58,30.44,30.10,10,1,14,0.02
2013-4-11,56,39,19,34,26,15,86,62,31,30.10,29.86,22,2,25,0.00
2013-4-12,64,43,34,33,30,19,82,64,18,29.93,29.81,23,3,34,0.00
2013-4-13,69,51,32,35,26,12,89,47,13,29.90,29.31,14,2,18,0.00
2013-4-14,49,42,37,39,19,9,89,44,20,29.72,29.37,21,6,33,0.15
2013-4-15,39,28,22,27,23,12,95,84,33,30.14,29.69,10,2,17,0.00
2013-4-16,32,27,23,29,26,21,96,93,89,30.15,29.97,12,3,20,0.08
2013-4-17,29,26,20,28,24,18,96,95,93,30.31,30.03,19,4,25,0.01
2013-4-18,39,28,16,28,19,11,94,72,40,30.31,30.27,8,1,15,0.25
2013-4-19,55,44,32,24,17,12,57,34,23,30.28,29.92,20,4,30,0.00
2013-4-20,59,48,35,34,29,22,74,50,29,29.92,29.80,11,2,15,0.00
2013-4-21,64,52,38,35,25,15,82,39,16,29.98,29.83,15,3,19,0.00
2013-4-22,50,34,23,35,27,21,94,77,42,30.34,29.76,19,4,33,0.00
2013-4-23,36,27,20,28,21,17,94,80,55,30.41,30.29,6,1,9,0.29
2013-4-24,59,42,23,28,18,10,81,44,15,30.32,30.17,11,1,18,0.00
2013-4-25,67,50,31,30,20,7,64,34,11,30.17,29.82,8,1,16,0.00
2013-4-26,69,56,42,28,20,12,55,27,12,30.08,29.91,10,2,21,0.00
2013-4-27,78,61,40,27,19,8,56,25,7,30.07,29.84,10,2,15,0.00
2013-4-28,79,64,43,33,24,16,58,26,10,29.84,29.59,21,3,31,0.00
2013-4-29,80,67,51,34,25,14,50,24,9,29.70,29.35,17,3,25,0.00
2013-4-30,62,51,36,39,33,23,91,53,22,29.89,29.35,21,3,28,0.03
2013-5-1,37,29,23,35,28,22,96,95,90,30.76,29.91,14,4,21,0.19
2013-5-2,49,36,24,30,23,13,95,65,27,30.85,30.49,4,0,11,0.08
2013-5-3,61,47,31,32,24,19,82,46,22,30.49,30.05,15,2,18,0.00
2013-5-4,60,49,39,33,28,21,67,46,29,30.14,30.01,13,2,21,0.00
2013-5-5,58,48,37,36,26,21,63,45,28,30.14,30.01,8,1,11,0.00
2013-5-6,68,54,40,37,33,30,83,47,26,30.03,29.78,10,2,14,0.00
2013-5-7,71,56,46,45,38,31,81,53,25,29.85,29.68,9,2,20,0.05
2013-5-8,62,49,44,48,41,37,92,75,41,30.00,29.78,12,2,22,0.30
2013-5-9,59,50,43,48,42,36,93,75,47,30.11,29.98,10,2,34,0.06
2013-5-10,68,54,39,42,37,33,86,56,28,30.18,30.08,13,2,26,0.00
2013-5-11,70,57,47,44,38,34,72,50,27,30.26,30.06,13,2,24,0.02
2013-5-12,80,66,50,39,34,29,63,34,17,30.08,29.86,11,2,20,0.00
2013-5-13,86,71,54,45,37,33,60,32,16,29.91,29.73,10,2,21,0.00
2013-5-14,87,71,58,46,38,29,49,32,13,29.73,29.62,18,3,30,0.00
2013-5-15,84,65,55,52,43,36,79,49,19,29.73,29.57,18,2,32,0.37
2013-5-16,84,67,51,50,42,31,84,45,16,29.68,29.55,15,2,17,0.01
2013-5-17,88,71,53,47,31,3,69,32,4,29.61,29.42,15,2,23,0.00
2013-5-18,76,64,52,38,33,22,49,32,14,29.61,29.46,11,2,24,0.00
2013-5-19,72,61,51,39,32,23,61,37,17,29.63,29.51,11,2,23,0.00
2013-5-20,67,54,47,46,40,35,88,60,34,29.88,29.62,17,2,26,0.06
2013-5-21,73,58,43,41,34,26,86,47,18,29.91,29.71,11,2,21,0.00
2013-5-22,77,61,46,50,36,-100,82,45,22,29.86,29.65,18,3,34,0.09
2013-5-23,72,59,46,49,46,43,90,64,40,29.89,29.73,14,2,21,0.00
2013-5-24,84,67,48,55,43,31,88,50,17,29.79,29.63,12,2,17,0.00
2013-5-25,88,72,56,54,36,8,75,34,5,29.71,29.52,9,2,15,0.00
2013-5-26,84,71,56,43,31,10,60,26,6,29.62,29.52,17,3,24,0.00
2013-5-27,82,70,56,40,27,14,48,23,8,29.57,29.43,17,2,25,0.00
2013-5-28,82,66,50,45,36,17,63,37,10,29.56,29.28,18,2,26,0.00
2013-5-29,67,57,48,52,43,30,94,62,29,29.54,29.33,16,3,23,0.32
2013-5-30,69,61,54,32,27,19,41,29,15,29.68,29.49,21,7,35,0.00
2013-5-31,72,63,53,25,17,7,31,18,8,29.81,29.64,15,5,31,0.00
2013-6-1,71,58,45,38,35,22,71,43,27,30.05,29.81,19,3,23,0.00
2013-6-2,84,66,45,41,34,26,68,35,12,30.04,29.57,13,1,16,0.00
2013-6-3,92,74,52,42,29,10,55,24,5,29.61,29.40,16,2,26,0.00
2013-6-4,74,61,50,54,44,20,88,57,20,30.00,29.62,31,2,31,0.03
2013-6-5,58,52,46,47,45,41,92,78,62,30.05,29.99,9,1,11,0.01
2013-6-6,80,64,44,48,41,35,88,49,21,30.04,29.84,11,2,23,0.00
2013-6-7,83,66,53,45,41,37,66,43,21,29.91,29.54,15,1,28,0.00
2013-6-8,77,68,56,49,42,38,64,42,29,29.79,29.49,25,3,34,0.00
2013-6-9,91,72,51,45,38,30,75,36,12,29.82,29.63,11,1,14,0.00
2013-6-10,96,80,62,45,35,24,47,22,8,29.64,29.46,14,1,30,0.00
2013-6-11,99,81,60,47,25,-19,53,21,1,29.60,29.39,14,3,24,0.00
2013-6-12,91,78,60,52,32,22,53,21,9,29.76,29.60,15,2,19,0.00
2013-6-13,84,70,56,56,52,37,85,56,22,29.79,29.59,12,2,17,0.00
2013-6-14,87,78,64,48,39,24,56,26,11,29.66,29.49,23,5,31,0.00
2013-6-15,81,69,56,52,47,44,71,48,31,29.79,29.60,10,2,15,0.00
2013-6-16,84,70,57,52,44,32,81,45,15,29.87,29.76,14,2,25,0.00
2013-6-17,81,67,54,50,44,35,68,46,19,29.91,29.78,12,2,26,0.00
2013-6-18,82,68,55,52,49,40,84,55,23,29.87,29.61,16,2,27,0.00
2013-6-19,95,74,54,52,38,12,85,38,5,29.72,29.35,17,2,20,0.00
2013-6-20,89,74,59,50,34,19,68,27,9,29.60,29.43,8,2,14,0.00
2013-6-21,91,76,60,57,37,16,62,32,7,29.59,29.43,28,2,42,0.00
2013-6-22,87,71,58,49,46,34,68,44,16,29.63,29.44,14,2,23,0.00
2013-6-23,86,67,53,53,44,-100,80,50,18,29.76,29.55,16,3,30,0.17
2013-6-24,89,73,59,51,40,26,67,36,11,29.66,29.46,13,2,22,0.00
2013-6-25,90,78,63,42,33,23,40,20,12,29.66,29.50,13,3,19,0.00
2013-6-26,95,79,60,45,38,30,56,26,10,29.75,29.64,10,1,15,0.00
2013-6-27,95,82,67,48,40,31,44,24,11,29.85,29.70,11,2,19,0.00
2013-6-28,93,77,64,58,49,-100,79,42,26,29.91,29.74,22,4,34,0.33
2013-6-29,84,72,62,56,50,-100,77,52,31,29.89,29.77,10,-9,17,0.00
2013-6-30,80,69,62,57,55,51,78,61,43,29.91,29.84,10,2,15,0.00
2013-7-1,81,68,58,57,52,47,88,60,36,30.02,29.91,11,3,17,0.17
2013-7-2,82,69,54,56,50,42,94,58,27,29.99,29.85,14,2,18,0.01
2013-7-3,89,72,56,51,46,41,76,44,21,29.85,29.61,11,1,17,0.00
2013-7-4,90,75,59,54,46,41,66,39,19,29.68,29.58,11,2,28,0.00
2013-7-5,92,75,64,57,50,45,63,44,22,29.58,29.48,14,2,23,0.00
2013-7-6,92,75,67,62,51,43,71,45,19,29.65,29.52,9,2,32,0.23
2013-7-7,87,75,64,55,52,48,69,47,28,29.74,29.63,9,1,15,0.00
2013-7-8,97,78,66,56,48,33,68,40,11,29.75,29.66,19,3,23,0.00
2013-7-9,95,80,65,54,45,36,61,34,13,29.83,29.73,14,1,25,0.00
2013-7-10,91,76,61,59,51,43,68,44,26,29.86,29.68,10,2,12,0.00
2013-7-11,98,75,62,59,47,-100,75,47,11,29.75,29.49,17,2,31,0.19
2013-7-12,89,74,64,64,55,49,82,53,25,29.72,29.56,12,2,19,0.03
2013-7-13,92,72,63,62,59,52,92,68,26,29.86,29.69,15,2,22,0.20
2013-7-14,84,70,59,62,59,56,93,70,40,29.95,29.78,14,3,18,0.01
2013-7-15,77,69,64,64,59,46,93,73,50,29.91,29.80,9,1,24,0.01
2013-7-16,83,70,55,54,49,45,82,50,28,29.93,29.84,11,2,21,0.00
2013-7-17,92,74,59,58,52,46,84,50,22,29.93,29.77,9,2,15,0.00
2013-7-18,92,76,64,55,52,47,68,45,24,29.83,29.70,16,3,22,0.00
2013-7-19,82,74,66,58,55,50,69,53,34,29.84,29.74,12,3,22,0.00
2013-7-20,90,73,61,57,53,47,81,52,23,29.75,29.60,19,2,29,0.00
2013-7-21,90,74,58,59,55,48,81,54,26,29.68,29.56,12,2,18,0.00
2013-7-22,92,79,62,58,50,39,79,39,19,29.65,29.56,15,2,16,0.00
2013-7-23,88,75,62,56,45,33,58,36,19,29.79,29.58,9,2,14,0.00
2013-7-24,82,73,60,60,54,40,77,53,24,29.87,29.72,12,3,24,0.00
2013-7-25,79,66,59,60,54,49,90,67,35,30.01,29.76,13,1,28,0.14
2013-7-26,84,71,58,54,49,40,80,51,22,30.03,29.85,12,1,19,0.00
2013-7-27,78,66,56,60,53,49,92,64,43,29.88,29.76,11,2,17,0.09
2013-7-28,70,62,58,62,58,57,95,87,67,29.83,29.70,7,1,11,0.08
2013-7-29,76,64,58,62,57,52,97,81,44,29.95,29.71,8,1,17,0.02
2013-7-30,89,71,57,55,51,44,83,53,23,29.99,29.87,13,2,24,0.00
2013-7-31,92,75,61,55,49,37,73,45,15,30.01,29.81,10,1,18,0.00
2013-8-1,91,73,62,56,51,34,80,51,14,29.89,29.65,12,2,23,0.00
2013-8-2,90,76,61,54,49,40,72,42,18,29.72,29.62,9,1,16,0.00
2013-8-3,90,72,61,60,55,45,90,60,22,29.96,29.69,23,2,29,0.19
2013-8-4,91,72,57,57,52,43,83,52,23,29.90,29.78,6,1,20,0.00
2013-8-5,86,72,60,55,50,46,67,47,27,29.80,29.71,12,2,16,0.00
2013-8-6,87,71,59,56,49,41,76,49,21,29.78,29.67,19,2,22,0.05
2013-8-7,74,66,60,56,52,46,81,62,42,29.83,29.74,8,1,16,0.01
2013-8-8,78,65,58,57,55,46,94,73,46,29.95,29.77,8,1,13,0.00
2013-8-9,80,65,52,52,49,42,84,58,29,29.98,29.91,11,2,20,0.00
2013-8-10,89,68,53,53,45,-100,83,50,19,30.00,29.83,15,2,31,0.23
2013-8-11,81,71,60,52,48,44,70,47,28,29.92,29.84,11,1,14,0.00
2013-8-12,81,68,56,57,52,48,92,59,34,30.01,29.83,20,2,28,0.17
2013-8-13,79,66,54,54,50,45,86,60,34,30.00,29.88,16,2,22,0.01
2013-8-14,83,68,55,55,48,40,88,55,23,29.98,29.84,9,1,21,0.00
2013-8-15,86,69,54,52,46,34,76,47,17,29.90,29.81,11,1,21,0.00
2013-8-16,91,74,56,50,43,30,73,38,12,29.89,29.78,12,1,15,0.00
2013-8-17,97,77,58,54,42,21,81,36,7,29.84,29.67,8,1,12,0.00
2013-8-18,93,76,61,56,46,33,77,40,13,29.80,29.69,16,2,18,0.00
2013-8-19,98,78,59,51,44,34,66,34,11,29.78,29.66,9,1,13,0.00
2013-8-20,96,81,61,50,41,22,63,29,7,29.69,29.58,12,1,23,0.00
2013-8-21,93,75,65,59,47,-100,73,42,19,29.80,29.66,10,2,31,0.16
2013-8-22,82,69,62,61,57,54,84,67,48,29.92,29.80,8,1,13,0.07
2013-8-23,88,71,60,59,55,49,83,61,28,29.92,29.66,14,2,19,0.07
2013-8-24,87,71,59,62,53,48,79,55,27,29.82,29.71,12,2,21,0.02
2013-8-25,89,74,61,56,52,47,73,47,24,29.84,29.75,12,1,16,0.00
2013-8-26,91,76,61,57,54,51,78,50,26,29.82,29.73,14,2,17,0.00
2013-8-27,90,77,63,59,54,50,72,47,28,29.80,29.66,12,1,14,0.00
2013-8-28,91,77,63,57,52,44,71,45,20,29.77,29.69,11,1,15,0.00
2013-8-29,95,79,62,54,48,42,65,37,17,29.82,29.75,15,1,22,0.00
2013-8-30,87,76,68,56,52,48,61,44,25,29.83,29.75,10,1,22,0.00
2013-8-31,90,75,65,55,50,44,65,43,21,29.79,29.71,13,2,19,0.00
2013-9-1,79,70,61,60,56,49,87,64,47,29.89,29.79,8,1,12,0.04
2013-9-2,92,74,59,59,53,43,84,52,18,29.87,29.70,6,0,12,0.00
2013-9-3,96,79,67,54,50,46,60,39,18,29.77,29.67,12,2,18,0.00
2013-9-4,91,77,66,56,52,47,63,43,22,29.83,29.75,8,1,12,0.00
2013-9-5,93,76,65,56,52,46,71,45,20,29.87,29.77,7,1,11,0.00
2013-9-6,97,78,62,56,49,40,68,39,15,29.82,29.66,13,2,21,0.00
2013-9-7,94,77,60,53,48,35,74,41,14,29.78,29.65,11,1,17,0.00
2013-9-8,92,74,59,53,49,45,73,44,20,29.69,29.52,13,2,18,0.00
2013-9-9,82,67,58,61,53,49,93,65,34,29.80,29.55,14,2,27,0.73
2013-9-10,65,60,58,59,58,56,95,92,77,30.01,29.77,8,1,12,0.21
2013-9-11,69,61,59,62,59,58,97,94,77,30.01,29.96,11,3,18,0.89
2013-9-12,64,60,58,61,59,57,97,94,89,30.08,29.99,10,3,23,0.74
2013-9-13,77,64,57,63,59,56,97,86,52,29.99,29.67,7,0,10,0.29
2013-9-14,76,64,57,60,57,51,95,81,42,29.80,29.63,9,1,17,0.06
2013-9-15,60,57,54,57,55,53,95,92,85,30.11,29.80,16,2,18,0.52
2013-9-16,76,62,54,58,54,52,96,78,47,30.09,29.84,7,0,8,0.01
2013-9-17,84,67,50,55,47,33,93,56,17,29.85,29.57,9,1,13,0.01
2013-9-18,86,70,57,50,45,38,70,44,23,29.62,29.49,19,2,32,0.00
2013-9-19,66,59,53,46,42,36,74,55,42,30.00,29.61,8,1,12,0.00
2013-9-20,73,59,48,49,44,39,83,60,31,30.03,29.85,6,0,10,0.00
2013-9-21,82,65,48,48,42,35,83,50,19,29.86,29.57,10,1,13,0.00
2013-9-22,79,65,53,52,45,40,92,52,31,29.56,29.32,8,1,21,0.06
2013-9-23,66,58,50,52,39,30,94,56,27,29.89,29.31,18,4,30,0.60
2013-9-24,78,59,40,46,35,22,83,47,17,30.00,29.67,8,0,11,0.00
2013-9-25,82,63,45,51,42,32,84,49,18,29.66,29.24,10,1,17,0.00
2013-9-26,69,57,46,47,43,36,79,60,39,29.56,29.33,11,1,13,0.00
2013-9-27,53,47,41,49,44,36,96,91,77,29.95,29.55,11,2,18,0.18
2013-9-28,71,54,37,38,29,22,74,42,21,30.09,29.94,13,2,22,0.00
2013-9-29,78,60,39,39,30,20,78,39,12,29.99,29.72,16,2,27,0.00
2013-9-30,84,68,54,46,35,22,55,33,17,29.73,29.53,12,1,21,0.00
2013-10-1,73,62,49,44,40,29,69,46,26,29.84,29.64,13,2,15,0.00
2013-10-2,75,59,45,46,37,-100,88,52,21,29.79,29.67,14,-18,16,0.00
2013-10-3,62,52,43,47,41,37,94,68,48,29.73,29.57,10,2,16,0.02
2013-10-4,47,37,32,46,30,-100,96,84,61,30.21,29.63,15,2,22,0.27
2013-10-5,65,45,29,32,22,13,89,50,14,30.27,30.14,12,2,20,0.01
2013-10-6,71,51,34,42,29,18,81,47,21,30.21,30.11,10,0,11,0.00
2013-10-7,78,58,41,42,32,17,79,46,10,30.11,29.75,6,0,10,0.00
2013-10-8,78,61,48,40,33,22,60,38,13,29.74,29.50,11,1,13,0.00
2013-10-9,64,55,48,44,38,33,76,54,42,29.82,29.60,14,2,16,0.00
2013-10-10,60,51,45,48,42,27,88,74,39,29.81,29.39,19,2,23,0.13
2013-10-11,62,54,42,40,32,25,83,45,27,29.90,29.38,12,2,24,0.00
2013-10-12,56,47,40,41,40,37,93,76,53,30.09,29.91,13,1,16,0.00
2013-10-13,61,49,39,45,40,35,90,71,49,30.08,29.78,7,1,11,0.00
2013-10-14,56,46,39,43,35,-100,87,71,46,30.12,29.72,16,3,25,0.06
2013-10-15,46,38,34,30,26,23,71,63,48,30.30,30.13,7,1,12,0.00
2013-10-16,52,41,29,32,28,25,87,62,37,30.24,30.01,8,1,10,0.00
2013-10-17,49,40,34,32,30,27,79,66,52,30.12,30.01,8,2,12,0.00
2013-10-18,43,36,31,37,30,26,95,78,54,30.22,30.05,8,1,15,0.14
2013-10-19,66,48,30,31,24,19,87,47,17,30.16,29.84,20,2,22,0.00
2013-10-20,55,43,35,36,31,20,94,66,26,30.09,29.78,14,2,19,0.15
2013-10-21,62,45,30,35,30,22,95,60,23,30.22,30.08,12,1,13,0.01
2013-10-22,64,53,41,37,30,24,80,44,28,30.13,30.01,10,1,15,0.00
2013-10-23,64,50,35,36,32,29,83,54,29,30.12,30.01,9,1,15,0.00
2013-10-24,55,46,35,39,36,31,85,69,52,30.21,30.12,6,1,10,0.00
2013-10-25,68,51,34,40,34,28,88,57,25,30.19,30.02,8,1,12,0.00
2013-10-26,64,52,39,37,33,29,76,51,29,30.24,30.02,7,1,11,0.00
2013-10-27,70,53,35,34,27,18,77,44,14,30.02,29.73,13,2,23,0.00
2013-10-28,49,37,32,34,31,27,95,80,43,30.05,29.74,10,2,15,0.02
2013-10-29,39,35,32,35,32,31,96,88,75,30.09,29.90,6,1,9,0.02
2013-10-30,45,38,32,38,34,24,97,85,55,29.97,29.84,10,1,17,0.12
2013-10-31,53,46,36,27,21,17,66,39,25,29.86,29.78,20,5,30,0.00
2013-11-1,56,44,35,32,26,19,77,52,26,30.18,29.83,9,2,18,0.00
2013-11-2,67,47,31,32,25,17,81,47,15,30.20,29.69,8,0,8,0.00
2013-11-3,69,52,37,29,20,7,68,35,9,29.72,29.41,15,3,20,0.00
2013-11-4,42,35,32,30,20,12,88,56,34,29.98,29.72,15,2,21,0.00
2013-11-5,46,34,28,24,15,1,74,48,17,30.22,29.94,12,2,20,0.00
2013-11-6,53,42,25,18,13,3,55,32,22,30.33,30.19,21,4,29,0.00
2013-11-7,58,43,31,32,18,-100,65,42,28,30.36,29.96,8,-41,18,0.00
2013-11-8,68,51,34,25,20,-100,68,35,14,29.94,29.73,18,-8,27,0.00
2013-11-9,63,48,37,33,27,22,65,46,23,30.17,29.91,9,2,12,0.00
2013-11-10,66,49,32,31,24,17,82,44,16,30.20,30.09,7,0,10,0.00
2013-11-11,66,41,31,31,26,16,90,61,15,30.66,30.12,19,2,25,0.00
2013-11-12,60,40,30,32,23,-100,90,61,30,30.66,30.38,7,-41,8,0.00
2013-11-13,70,50,30,28,19,5,76,37,8,30.38,29.92,12,1,16,0.00
2013-11-14,58,50,41,33,28,20,67,45,24,29.95,29.64,11,2,15,0.00
2013-11-15,66,49,31,31,20,8,79,40,11,29.64,29.37,10,1,21,0.00
2013-11-16,60,46,36,31,21,12,70,40,15,29.47,29.19,13,3,37,0.00
2013-11-17,58,46,36,29,17,11,74,34,16,30.00,29.47,19,4,31,0.00
2013-11-18,66,45,28,26,16,4,70,36,9,30.12,29.97,6,1,11,0.00
2013-11-19,63,47,32,28,21,17,61,39,20,29.96,29.67,11,1,23,0.00
2013-11-20,59,49,28,29,25,21,82,40,24,29.93,29.62,16,2,28,0.00
2013-11-21,28,17,14,25,14,9,91,85,74,30.82,29.94,12,2,15,0.00
2013-11-22,34,26,17,23,16,6,82,66,40,30.82,30.68,5,0,10,0.02
2013-11-23,37,29,25,24,18,4,78,65,36,30.77,30.43,3,0,5,0.00
2013-11-24,40,30,22,28,22,16,84,72,39,30.41,30.07,8,0,13,0.00
2013-11-25,43,37,30,30,23,15,81,57,35,30.34,30.14,9,1,16,0.00
2013-11-26,51,38,29,26,21,16,77,53,26,30.46,30.27,8,1,13,0.00
2013-11-27,64,42,25,25,20,15,77,46,16,30.27,30.04,8,1,13,0.00
2013-11-28,47,38,30,27,24,20,74,60,42,30.18,30.11,8,1,11,0.00
2013-11-29,62,44,29,25,21,14,82,45,16,30.17,30.08,9,1,15,0.00
2013-11-30,64,44,30,23,16,11,62,37,13,30.13,30.05,10,1,15,0.00
2013-12-1,59,45,29,25,19,15,65,38,19,30.12,29.81,23,4,40,0.00
2013-12-2,62,52,42,26,20,17,47,29,18,29.82,29.41,13,2,28,0.00
2013-12-3,55,36,11,29,18,7,84,52,29,29.77,29.31,13,4,29,0.00
2013-12-4,11,7,0,7,3,-5,87,82,76,30.43,29.77,9,1,12,0.00
2013-12-5,10,4,-4,5,-2,-8,86,76,67,30.51,30.38,6,0,9,0.00
2013-12-6,19,4,-2,12,-2,-6,87,77,56,30.62,30.50,4,0,7,0.00
2013-12-7,22,6,-4,17,-2,-100,93,73,55,30.59,30.12,4,-21,8,0.00
2013-12-8,20,10,3,11,4,0,89,79,66,30.35,30.05,4,1,7,0.00
2013-12-9,29,16,-1,10,-1,-8,87,54,22,30.43,30.31,15,2,41,0.01
2013-12-10,50,33,18,16,9,-1,60,37,22,30.39,30.04,14,2,33,0.01
2013-12-11,39,24,14,21,15,10,87,67,38,30.48,30.32,5,0,15,0.00
2013-12-12,56,34,18,22,16,10,78,54,16,30.48,30.00,4,0,6,0.00
2013-12-13,49,36,23,23,16,9,72,47,21,30.20,29.86,13,1,16,0.00
2013-12-14,49,36,23,20,15,10,76,46,21,30.32,30.20,10,1,18,0.00
2013-12-15,61,48,36,21,15,10,52,29,16,30.21,30.02,21,3,35,0.00
2013-12-16,62,53,39,23,12,2,37,20,9,30.11,29.97,18,4,30,0.00
2013-12-17,66,49,31,18,13,4,53,26,10,30.25,29.97,10,2,19,0.00
2013-12-18,69,56,44,15,10,4,32,17,8,29.96,29.54,17,4,25,0.00
2013-12-19,44,34,17,24,19,14,91,57,32,29.90,29.43,11,2,19,0.00
2013-12-20,28,21,16,21,17,13,91,86,74,29.93,29.83,6,0,7,0.00
2013-12-21,32,24,15,25,19,12,95,83,59,30.05,29.73,9,1,14,0.00
2013-12-22,40,28,17,22,16,10,95,66,31,30.36,30.06,20,2,27,0.03
2013-12-23,49,32,18,24,19,16,92,64,32,30.41,30.18,15,2,22,0.02
2013-12-24,56,43,27,29,18,7,63,39,23,30.24,29.92,28,4,39,0.00
2013-12-25,44,31,20,18,10,3,74,46,19,30.48,30.23,8,1,11,0.00
2013-12-26,52,43,27,23,9,2,57,28,16,30.33,30.23,14,2,26,0.00
2013-12-27,62,42,27,22,19,15,67,44,18,30.30,30.03,3,0,7,0.00
2013-12-28,60,36,20,27,21,17,92,59,21,30.27,29.81,24,2,25,0.00
2013-12-29,40,27,17,21,16,11,91,66,32,30.32,30.04,7,1,19,0.03
2013-12-30,51,40,30,26,14,9,72,36,20,30.27,30.08,15,4,34,0.00
2013-12-31,56,45,31,21,17,11,50,34,23,30.07,29.84,21,4,30,0.00
2014-1-1,48,35,24,31,25,20,91,71,33,30.31,29.81,16,2,27,0.02
2014-1-2,45,31,19,25,20,14,88,67,31,30.40,30.10,8,1,11,0.01